Time;durP1;ratioP1;P1;durP2;ratioP2;P2;SDS_P1;SDS_P2;PMS_P1;PMS_P2;Temp;Humidity;BMP_temperature;BMP_pressure;BME280_temperature;BME280_humidity;BME280_pressure;Samples;Min_cycle;Max_cycle;Signal;HPM_P1;HPM_P2
2023/12/04 00:01:45;;;;;;;14.60;10.60;;;;;;;;;;6281017;22;20677;-79
2023/12/04 00:04:13;;;;;;;16.77;11.48;;;;;;;;;;6281903;22;20160;-79
2023/12/04 00:06:41;;;;;;;15.90;10.35;;;;;;;;;;6282519;22;20206;-79
2023/12/04 00:09:09;;;;;;;14.80;10.02;;;;;;;;;;6281819;22;20227;-79
2023/12/04 00:11:36;;;;;;;14.63;10.20;;;;;;;;;;6281992;22;20271;-79
2023/12/04 00:14:04;;;;;;;13.82;10.10;;;;;;;;;;6281271;22;20208;-79
2023/12/04 00:16:35;;;;;;;14.35;11.18;;;;;;;;;;6280979;22;20211;-80
2023/12/04 00:19:03;;;;;;;14.07;10.82;;;;;;;;;;6281690;22;20219;-80
2023/12/04 00:21:30;;;;;;;14.18;10.68;;;;;;;;;;6281129;22;20251;-80
2023/12/04 00:23:58;;;;;;;16.52;10.90;;;;;;;;;;6280515;22;20235;-79
2023/12/04 00:26:25;;;;;;;14.00;11.00;;;;;;;;;;6280647;22;20255;-80
2023/12/04 00:28:52;;;;;;;14.65;10.65;;;;;;;;;;6280638;22;20216;-79
2023/12/04 00:31:20;;;;;;;14.23;10.20;;;;;;;;;;6280501;22;20247;-80
2023/12/04 00:33:49;;;;;;;13.40;9.90;;;;;;;;;;6281460;22;20559;-79
2023/12/04 00:36:16;;;;;;;14.30;9.90;;;;;;;;;;6281307;22;20568;-79
2023/12/04 00:38:43;;;;;;;13.25;10.38;;;;;;;;;;6281030;22;20223;-80
2023/12/04 00:41:11;;;;;;;15.68;10.50;;;;;;;;;;6279711;22;20728;-79
2023/12/04 00:43:39;;;;;;;16.52;10.98;;;;;;;;;;6280947;22;20264;-79
2023/12/04 00:46:07;;;;;;;13.77;10.35;;;;;;;;;;6280956;22;20263;-80
2023/12/04 00:48:34;;;;;;;14.50;9.68;;;;;;;;;;6281279;22;20252;-80
2023/12/04 00:51:03;;;;;;;14.90;10.63;;;;;;;;;;6280483;22;20579;-79
2023/12/04 00:53:30;;;;;;;13.90;10.18;;;;;;;;;;6280356;22;20203;-80
2023/12/04 00:55:58;;;;;;;13.90;10.15;;;;;;;;;;6280947;22;20203;-79
2023/12/04 00:58:25;;;;;;;16.00;10.93;;;;;;;;;;6280874;22;20231;-80
2023/12/04 01:00:52;;;;;;;14.27;9.65;;;;;;;;;;6279788;22;20567;-79
2023/12/04 01:03:20;;;;;;;12.05;9.32;;;;;;;;;;6280346;22;20688;-80
2023/12/04 01:05:47;;;;;;;14.07;9.82;;;;;;;;;;6280730;22;20263;-80
2023/12/04 01:08:16;;;;;;;13.05;9.65;;;;;;;;;;6280807;22;20252;-79
2023/12/04 01:10:44;;;;;;;13.77;9.98;;;;;;;;;;6280212;22;20233;-79
2023/12/04 01:13:11;;;;;;;13.52;9.15;;;;;;;;;;6280795;22;20274;-79
2023/12/04 01:15:38;;;;;;;14.02;10.85;;;;;;;;;;6280610;22;20256;-78
2023/12/04 01:18:07;;;;;;;13.80;9.90;;;;;;;;;;6280750;22;20223;-80
2023/12/04 01:20:34;;;;;;;12.90;9.43;;;;;;;;;;6281222;22;20177;-80
2023/12/04 01:23:01;;;;;;;13.30;10.13;;;;;;;;;;6280635;22;20252;-80
2023/12/04 01:25:30;;;;;;;11.15;8.02;;;;;;;;;;6281618;22;20563;-79
2023/12/04 01:27:58;;;;;;;13.70;9.48;;;;;;;;;;6281221;22;20223;-80
2023/12/04 01:30:25;;;;;;;13.82;9.07;;;;;;;;;;6280638;22;20255;-80
2023/12/04 01:32:53;;;;;;;13.57;10.07;;;;;;;;;;6280430;22;20252;-80
2023/12/04 01:35:20;;;;;;;11.23;8.40;;;;;;;;;;6283410;22;20187;-80
2023/12/04 01:37:48;;;;;;;11.10;7.95;;;;;;;;;;6282867;22;20251;-79
2023/12/04 01:40:15;;;;;;;12.82;9.45;;;;;;;;;;6282125;22;20633;-79
2023/12/04 01:42:45;;;;;;;11.77;8.65;;;;;;;;;;6284041;22;20267;-79
2023/12/04 01:45:13;;;;;;;11.38;8.82;;;;;;;;;;6283429;22;20243;-78
2023/12/04 01:47:40;;;;;;;11.60;9.57;;;;;;;;;;6282469;22;20693;-79
2023/12/04 01:50:09;;;;;;;12.35;9.43;;;;;;;;;;6282315;22;20177;-79
2023/12/04 01:52:37;;;;;;;11.77;8.85;;;;;;;;;;6282754;22;20216;-80
2023/12/04 01:55:06;;;;;;;11.88;8.45;;;;;;;;;;6282469;22;20247;-80
2023/12/04 01:57:34;;;;;;;12.05;8.95;;;;;;;;;;6283417;22;20215;-79
2023/12/04 02:00:03;;;;;;;11.95;8.60;;;;;;;;;;6281679;22;20271;-80
2023/12/04 02:02:30;;;;;;;13.75;9.43;;;;;;;;;;6282245;22;20244;-80
2023/12/04 02:04:57;;;;;;;12.15;9.32;;;;;;;;;;6282691;22;20172;-80
2023/12/04 02:07:25;;;;;;;12.65;9.00;;;;;;;;;;6281886;22;20204;-80
2023/12/04 02:09:53;;;;;;;11.38;8.50;;;;;;;;;;6282483;22;20224;-79
2023/12/04 02:12:21;;;;;;;12.02;9.20;;;;;;;;;;6282409;22;20210;-80
2023/12/04 02:14:48;;;;;;;13.77;9.80;;;;;;;;;;6282137;22;20176;-79
2023/12/04 02:17:18;;;;;;;10.75;8.55;;;;;;;;;;6282985;22;20211;-80
2023/12/04 02:19:45;;;;;;;12.25;9.02;;;;;;;;;;6282385;22;20290;-79
2023/12/04 02:22:13;;;;;;;12.25;9.52;;;;;;;;;;6282021;22;20203;-80
2023/12/04 02:24:41;;;;;;;13.35;10.10;;;;;;;;;;6282067;22;20212;-79
2023/12/04 02:27:13;;;;;;;12.45;8.77;;;;;;;;;;6282393;22;20576;-79
2023/12/04 02:29:47;;;;;;;11.15;8.98;;;;;;;;;;6282207;22;20224;-79
2023/12/04 02:32:18;;;;;;;14.20;8.82;;;;;;;;;;6281205;22;20583;-78
2023/12/04 02:34:46;;;;;;;13.48;10.63;;;;;;;;;;6282529;22;20239;-78
2023/12/04 02:37:14;;;;;;;12.90;9.40;;;;;;;;;;6282405;22;20176;-79
2023/12/04 02:39:42;;;;;;;13.32;9.73;;;;;;;;;;6281594;22;20589;-78
2023/12/04 02:42:10;;;;;;;14.07;9.95;;;;;;;;;;6282230;22;20632;-78
2023/12/04 02:44:37;;;;;;;13.05;9.80;;;;;;;;;;6282205;22;20228;-79
2023/12/04 02:47:04;;;;;;;15.43;10.73;;;;;;;;;;6281634;22;20283;-80
2023/12/04 02:49:31;;;;;;;13.98;9.25;;;;;;;;;;6281809;22;20317;-79
2023/12/04 02:51:59;;;;;;;12.00;9.23;;;;;;;;;;6282207;22;20208;-80
2023/12/04 02:54:26;;;;;;;13.60;9.65;;;;;;;;;;6281655;22;20275;-79
2023/12/04 02:56:55;;;;;;;12.57;9.27;;;;;;;;;;6282047;22;20256;-79
2023/12/04 02:59:22;;;;;;;14.30;10.88;;;;;;;;;;6281638;22;20279;-78
2023/12/04 03:01:50;;;;;;;13.15;10.55;;;;;;;;;;6281600;22;20267;-78
2023/12/04 03:04:17;;;;;;;12.85;9.68;;;;;;;;;;6281826;22;20252;-79
2023/12/04 03:06:45;;;;;;;12.98;9.63;;;;;;;;;;6282494;22;20255;-79
2023/12/04 03:09:12;;;;;;;14.45;10.07;;;;;;;;;;6282053;22;20231;-79
2023/12/04 03:11:41;;;;;;;15.35;11.93;;;;;;;;;;6281620;22;20208;-79
2023/12/04 03:14:10;;;;;;;16.67;11.07;;;;;;;;;;6282400;22;20228;-79
2023/12/04 03:16:37;;;;;;;15.82;10.57;;;;;;;;;;6282299;22;20247;-78
2023/12/04 03:19:05;;;;;;;13.90;10.85;;;;;;;;;;6281191;22;20599;-80
2023/12/04 03:21:32;;;;;;;14.20;9.45;;;;;;;;;;6281580;22;20626;-80
2023/12/04 03:24:00;;;;;;;11.85;8.65;;;;;;;;;;6281946;22;20243;-80
2023/12/04 03:26:28;;;;;;;14.20;10.82;;;;;;;;;;6282980;22;20607;-79
2023/12/04 03:28:55;;;;;;;12.65;9.35;;;;;;;;;;6281288;22;20220;-80
2023/12/04 03:31:25;;;;;;;11.98;10.05;;;;;;;;;;6281457;22;20271;-78
2023/12/04 03:33:52;;;;;;;11.90;8.95;;;;;;;;;;6281972;22;20278;-78
2023/12/04 03:36:19;;;;;;;14.43;11.57;;;;;;;;;;6282273;22;20176;-79
2023/12/04 03:38:47;;;;;;;11.48;9.73;;;;;;;;;;6281295;22;20220;-80
2023/12/04 03:41:17;;;;;;;13.02;9.73;;;;;;;;;;6280625;22;20288;-78
2023/12/04 03:43:45;;;;;;;17.45;11.20;;;;;;;;;;6281593;22;20192;-79
2023/12/04 03:46:13;;;;;;;14.77;11.02;;;;;;;;;;6281464;22;20256;-79
2023/12/04 03:48:41;;;;;;;13.38;10.30;;;;;;;;;;6281337;22;20275;-79
2023/12/04 03:51:09;;;;;;;13.73;10.13;;;;;;;;;;6280653;22;20252;-79
2023/12/04 03:53:37;;;;;;;13.77;9.88;;;;;;;;;;6281105;22;20270;-80
2023/12/04 03:56:05;;;;;;;13.73;9.65;;;;;;;;;;6281591;22;20575;-80
2023/12/04 03:58:33;;;;;;;18.02;10.80;;;;;;;;;;6281585;22;20276;-80
2023/12/04 04:01:01;;;;;;;15.05;10.55;;;;;;;;;;6280995;22;20682;-79
2023/12/04 04:03:28;;;;;;;14.43;10.30;;;;;;;;;;6281030;22;20251;-79
2023/12/04 04:05:57;;;;;;;13.55;10.50;;;;;;;;;;6281432;22;20649;-79
2023/12/04 04:08:24;;;;;;;15.23;10.45;;;;;;;;;;6281466;22;20514;-79
2023/12/04 04:10:52;;;;;;;14.32;10.23;;;;;;;;;;6280936;22;20255;-80
2023/12/04 04:13:19;;;;;;;13.48;10.30;;;;;;;;;;6280774;22;20362;-79
2023/12/04 04:15:47;;;;;;;12.95;9.07;;;;;;;;;;6281159;22;20713;-79
2023/12/04 04:18:14;;;;;;;13.43;8.82;;;;;;;;;;6280614;22;20275;-79
2023/12/04 04:20:42;;;;;;;13.10;8.73;;;;;;;;;;6281272;22;20222;-79
2023/12/04 04:23:10;;;;;;;15.02;10.30;;;;;;;;;;6280758;22;20208;-79
2023/12/04 04:25:38;;;;;;;13.43;10.15;;;;;;;;;;6281738;22;20274;-77
2023/12/04 04:28:05;;;;;;;11.55;9.27;;;;;;;;;;6280935;22;20220;-79
2023/12/04 04:30:33;;;;;;;11.25;7.95;;;;;;;;;;6281125;22;20578;-80
2023/12/04 04:33:00;;;;;;;11.65;7.97;;;;;;;;;;6281321;22;20200;-79
2023/12/04 04:35:27;;;;;;;11.93;8.55;;;;;;;;;;6281516;22;20192;-79
2023/12/04 04:37:55;;;;;;;14.88;9.35;;;;;;;;;;6281089;22;20259;-78
2023/12/04 04:40:24;;;;;;;10.68;8.20;;;;;;;;;;6280605;22;20255;-78
2023/12/04 04:42:51;;;;;;;11.35;7.97;;;;;;;;;;6281436;22;20199;-79
2023/12/04 04:45:24;;;;;;;13.63;8.68;;;;;;;;;;6280508;22;20748;-79
2023/12/04 04:47:52;;;;;;;14.15;10.40;;;;;;;;;;6278832;22;20224;-79
2023/12/04 04:50:19;;;;;;;15.32;9.90;;;;;;;;;;6281106;22;20200;-79
2023/12/04 04:52:47;;;;;;;11.60;9.55;;;;;;;;;;6281576;22;20255;-79
2023/12/04 04:55:14;;;;;;;13.18;10.77;;;;;;;;;;6280776;22;20279;-79
2023/12/04 04:57:43;;;;;;;11.77;8.38;;;;;;;;;;6280862;22;20200;-79
2023/12/04 05:00:12;;;;;;;11.70;8.25;;;;;;;;;;6281712;22;20177;-79
2023/12/04 05:02:39;;;;;;;12.85;9.45;;;;;;;;;;6281421;22;20214;-79
2023/12/04 05:05:08;;;;;;;12.55;9.05;;;;;;;;;;6281105;22;20572;-78
2023/12/04 05:07:36;;;;;;;13.88;10.10;;;;;;;;;;6280903;22;20251;-80
2023/12/04 05:10:03;;;;;;;13.35;9.27;;;;;;;;;;6281867;22;20287;-79
2023/12/04 05:12:31;;;;;;;13.90;9.70;;;;;;;;;;6283348;22;20265;-79
2023/12/04 05:15:00;;;;;;;11.88;8.88;;;;;;;;;;6283040;22;20224;-79
2023/12/04 05:17:27;;;;;;;12.45;8.55;;;;;;;;;;6283500;22;20263;-79
2023/12/04 05:19:54;;;;;;;12.07;9.45;;;;;;;;;;6282192;22;20297;-79
2023/12/04 05:22:22;;;;;;;12.82;8.93;;;;;;;;;;6283002;22;20263;-79
2023/12/04 05:24:49;;;;;;;12.88;9.25;;;;;;;;;;6283225;22;20223;-78
2023/12/04 05:27:17;;;;;;;15.68;9.10;;;;;;;;;;6282857;22;20204;-79
2023/12/04 05:29:44;;;;;;;11.82;8.88;;;;;;;;;;6283176;22;20228;-79
2023/12/04 05:32:13;;;;;;;9.45;7.88;;;;;;;;;;6282746;22;20232;-78
2023/12/04 05:34:41;;;;;;;11.88;8.88;;;;;;;;;;6282537;22;20196;-79
2023/12/04 05:37:08;;;;;;;13.00;9.95;;;;;;;;;;6282524;22;20204;-79
2023/12/04 05:39:36;;;;;;;13.20;9.65;;;;;;;;;;6282818;22;20231;-78
2023/12/04 05:42:04;;;;;;;11.93;8.82;;;;;;;;;;6282896;22;20499;-78
2023/12/04 05:44:32;;;;;;;9.18;7.95;;;;;;;;;;6283230;22;20200;-79
2023/12/04 05:47:00;;;;;;;13.70;9.13;;;;;;;;;;6282762;22;20183;-79
2023/12/04 05:49:30;;;;;;;12.27;9.00;;;;;;;;;;6282177;22;20729;-79
2023/12/04 05:51:58;;;;;;;11.32;8.88;;;;;;;;;;6283236;22;20161;-78
2023/12/04 05:54:24;;;;;;;11.40;8.93;;;;;;;;;;6282962;22;20259;-79
2023/12/04 05:56:52;;;;;;;12.52;9.88;;;;;;;;;;6282969;22;20180;-79
2023/12/04 05:59:19;;;;;;;10.68;8.88;;;;;;;;;;6282878;22;20277;-79
2023/12/04 06:01:48;;;;;;;14.55;11.07;;;;;;;;;;6282946;22;20268;-78
2023/12/04 06:04:15;;;;;;;13.77;10.63;;;;;;;;;;6283022;22;20176;-80
2023/12/04 06:06:44;;;;;;;12.07;9.35;;;;;;;;;;6283010;22;20580;-79
2023/12/04 06:09:11;;;;;;;15.35;11.15;;;;;;;;;;6282335;22;20957;-78
2023/12/04 06:11:39;;;;;;;13.02;9.77;;;;;;;;;;6282060;22;20176;-79
2023/12/04 06:14:07;;;;;;;10.45;8.90;;;;;;;;;;6282635;22;20204;-78
2023/12/04 06:16:34;;;;;;;12.02;9.55;;;;;;;;;;6282645;22;20663;-78
2023/12/04 06:19:02;;;;;;;13.27;9.90;;;;;;;;;;6282929;22;20204;-79
2023/12/04 06:21:29;;;;;;;16.75;11.48;;;;;;;;;;6282943;22;20176;-79
2023/12/04 06:23:59;;;;;;;13.82;9.48;;;;;;;;;;6282632;22;20264;-80
2023/12/04 06:26:27;;;;;;;17.25;12.05;;;;;;;;;;6282386;22;20956;-79
2023/12/04 06:28:56;;;;;;;17.48;11.18;;;;;;;;;;6282212;22;20280;-79
2023/12/04 06:31:24;;;;;;;14.40;9.82;;;;;;;;;;6281956;22;20247;-78
2023/12/04 06:33:52;;;;;;;14.27;9.77;;;;;;;;;;6282758;22;20229;-79
2023/12/04 06:36:20;;;;;;;13.45;9.70;;;;;;;;;;6282621;22;20234;-77
2023/12/04 06:38:49;;;;;;;12.18;9.27;;;;;;;;;;6281913;22;20741;-79
2023/12/04 06:41:21;;;;;;;14.18;10.05;;;;;;;;;;6281952;22;20649;-79
2023/12/04 06:43:49;;;;;;;11.02;8.38;;;;;;;;;;6283625;22;20614;-79
2023/12/04 06:46:17;;;;;;;11.20;9.25;;;;;;;;;;6282398;22;20668;-79
2023/12/04 06:48:45;;;;;;;12.27;9.10;;;;;;;;;;6282311;22;20199;-79
2023/12/04 06:51:13;;;;;;;13.00;9.60;;;;;;;;;;6282110;22;20183;-79
2023/12/04 06:53:40;;;;;;;12.20;10.48;;;;;;;;;;6282637;22;20656;-78
2023/12/04 06:56:10;;;;;;;13.77;10.32;;;;;;;;;;6281074;22;20605;-78
2023/12/04 06:58:39;;;;;;;13.35;10.88;;;;;;;;;;6283231;22;20196;-79
2023/12/04 07:01:06;;;;;;;12.73;9.75;;;;;;;;;;6281360;22;20323;-79
2023/12/04 07:03:34;;;;;;;13.80;10.52;;;;;;;;;;6281513;22;20176;-80
2023/12/04 07:06:01;;;;;;;15.73;9.75;;;;;;;;;;6282428;22;20251;-79
2023/12/04 07:08:29;;;;;;;12.82;9.57;;;;;;;;;;6282596;22;20283;-79
2023/12/04 07:10:56;;;;;;;12.57;10.57;;;;;;;;;;6281566;22;20228;-77
2023/12/04 07:13:23;;;;;;;13.48;10.45;;;;;;;;;;6283371;22;20176;-79
2023/12/04 07:15:52;;;;;;;14.75;10.48;;;;;;;;;;6282188;22;20227;-78
2023/12/04 07:18:20;;;;;;;14.00;9.30;;;;;;;;;;6281944;22;20249;-79
2023/12/04 07:20:47;;;;;;;12.40;9.40;;;;;;;;;;6281719;22;20688;-77
2023/12/04 07:23:15;;;;;;;13.18;9.63;;;;;;;;;;6281702;22;20211;-80
2023/12/04 07:25:42;;;;;;;15.00;10.90;;;;;;;;;;6282056;22;20197;-79
2023/12/04 07:28:10;;;;;;;14.38;9.50;;;;;;;;;;6282444;22;20748;-78
2023/12/04 07:30:37;;;;;;;12.93;9.23;;;;;;;;;;6281742;22;20185;-78
2023/12/04 07:33:06;;;;;;;15.00;11.10;;;;;;;;;;6282998;22;20207;-79
2023/12/04 07:35:33;;;;;;;13.80;10.52;;;;;;;;;;6281303;22;20216;-79
2023/12/04 07:38:01;;;;;;;12.93;10.68;;;;;;;;;;6281592;22;20228;-79
2023/12/04 07:40:28;;;;;;;14.45;10.70;;;;;;;;;;6282483;22;20283;-79
2023/12/04 07:42:56;;;;;;;15.30;11.38;;;;;;;;;;6281487;22;20228;-79
2023/12/04 07:45:23;;;;;;;13.50;9.73;;;;;;;;;;6281536;22;20176;-79
2023/12/04 07:47:51;;;;;;;13.02;10.18;;;;;;;;;;6282003;22;20259;-78
2023/12/04 07:50:20;;;;;;;13.38;9.90;;;;;;;;;;6280748;22;20176;-78
2023/12/04 07:52:47;;;;;;;12.35;10.10;;;;;;;;;;6281157;22;20251;-78
2023/12/04 07:55:15;;;;;;;12.20;9.45;;;;;;;;;;6280922;22;20183;-78
2023/12/04 07:57:42;;;;;;;11.43;9.30;;;;;;;;;;6282181;22;20176;-79
2023/12/04 08:00:11;;;;;;;13.80;9.77;;;;;;;;;;6281882;22;20174;-79
2023/12/04 08:02:39;;;;;;;11.73;8.52;;;;;;;;;;6282192;22;20260;-79
2023/12/04 08:05:07;;;;;;;11.57;8.77;;;;;;;;;;6282730;22;20187;-78
2023/12/04 08:07:36;;;;;;;10.38;7.75;;;;;;;;;;6282216;22;20512;-77
2023/12/04 08:10:04;;;;;;;13.23;9.15;;;;;;;;;;6281945;22;20300;-79
2023/12/04 08:12:32;;;;;;;11.07;8.45;;;;;;;;;;6281308;22;20200;-78
2023/12/04 08:14:59;;;;;;;14.40;9.13;;;;;;;;;;6281768;22;20180;-79
2023/12/04 08:17:26;;;;;;;10.93;8.23;;;;;;;;;;6281615;22;20214;-79
2023/12/04 08:19:54;;;;;;;11.38;8.57;;;;;;;;;;6281312;22;20275;-78
2023/12/04 08:22:21;;;;;;;13.27;8.80;;;;;;;;;;6282284;22;20211;-80
2023/12/04 08:24:50;;;;;;;13.23;9.32;;;;;;;;;;6282218;22;20240;-78
2023/12/04 08:27:17;;;;;;;12.57;8.85;;;;;;;;;;6281720;22;20223;-79
2023/12/04 08:29:45;;;;;;;11.50;9.02;;;;;;;;;;6281353;22;20728;-79
2023/12/04 08:32:13;;;;;;;10.25;7.97;;;;;;;;;;6281965;22;20207;-79
2023/12/04 08:34:40;;;;;;;12.02;8.65;;;;;;;;;;6281451;22;20270;-78
2023/12/04 08:37:08;;;;;;;12.68;9.75;;;;;;;;;;6281936;22;20275;-79
2023/12/04 08:39:35;;;;;;;11.77;9.27;;;;;;;;;;6280090;22;20279;-78
2023/12/04 08:42:05;;;;;;;11.93;9.07;;;;;;;;;;6279822;22;20528;-78
2023/12/04 08:44:32;;;;;;;13.20;8.48;;;;;;;;;;6281300;22;20688;-78
2023/12/04 08:46:59;;;;;;;9.77;7.95;;;;;;;;;;6284050;22;20244;-79
2023/12/04 08:49:27;;;;;;;10.52;8.93;;;;;;;;;;6282944;22;20231;-78
2023/12/04 08:51:54;;;;;;;14.70;10.18;;;;;;;;;;6283034;22;20251;-79
2023/12/04 08:54:22;;;;;;;12.10;8.77;;;;;;;;;;6282982;22;20228;-80
2023/12/04 08:56:49;;;;;;;10.25;8.48;;;;;;;;;;6283879;22;20196;-78
2023/12/04 08:59:18;;;;;;;10.60;7.80;;;;;;;;;;6282693;22;20200;-79
2023/12/04 09:01:46;;;;;;;12.40;8.07;;;;;;;;;;6281479;22;20235;-80
2023/12/04 09:04:13;;;;;;;9.88;8.07;;;;;;;;;;6282448;22;20263;-79
2023/12/04 09:06:41;;;;;;;13.25;9.43;;;;;;;;;;6283970;22;20180;-79
2023/12/04 09:09:08;;;;;;;11.27;9.25;;;;;;;;;;6282916;22;20267;-80
2023/12/04 09:11:36;;;;;;;9.63;8.48;;;;;;;;;;6282513;22;20176;-80
2023/12/04 09:14:03;;;;;;;10.95;8.75;;;;;;;;;;6283357;22;20276;-80
2023/12/04 09:16:32;;;;;;;12.77;9.30;;;;;;;;;;6283097;22;20256;-79
2023/12/04 09:18:59;;;;;;;10.57;8.52;;;;;;;;;;6282733;22;20227;-80
2023/12/04 09:21:27;;;;;;;12.27;9.55;;;;;;;;;;6282221;22;20255;-79
2023/12/04 09:23:54;;;;;;;9.90;8.38;;;;;;;;;;6282031;22;20180;-80
2023/12/04 09:26:22;;;;;;;11.95;9.73;;;;;;;;;;6283231;22;20252;-79
2023/12/04 09:28:49;;;;;;;11.80;8.50;;;;;;;;;;6282288;22;20275;-80
2023/12/04 09:31:17;;;;;;;11.55;8.45;;;;;;;;;;6282582;22;20859;-78
2023/12/04 09:33:47;;;;;;;9.90;8.52;;;;;;;;;;6283347;22;20256;-80
2023/12/04 09:36:14;;;;;;;11.60;8.57;;;;;;;;;;6283078;22;20506;-80
2023/12/04 09:38:42;;;;;;;9.85;8.45;;;;;;;;;;6282668;22;20193;-79
2023/12/04 09:41:13;;;;;;;12.73;8.80;;;;;;;;;;6282361;22;20547;-79
2023/12/04 09:43:41;;;;;;;12.45;8.57;;;;;;;;;;6283125;22;20188;-80
2023/12/04 09:46:09;;;;;;;10.75;8.43;;;;;;;;;;6282833;22;20183;-80
2023/12/04 09:48:37;;;;;;;10.07;7.90;;;;;;;;;;6283236;22;20570;-80
2023/12/04 09:51:07;;;;;;;10.77;9.07;;;;;;;;;;6282788;22;20681;-79
2023/12/04 09:53:35;;;;;;;10.32;7.90;;;;;;;;;;6283219;22;20665;-78
2023/12/04 09:56:05;;;;;;;11.18;8.02;;;;;;;;;;6282635;22;20231;-79
2023/12/04 09:58:33;;;;;;;13.57;9.55;;;;;;;;;;6282372;22;20220;-80
2023/12/04 10:01:02;;;;;;;10.88;8.02;;;;;;;;;;6282923;22;20629;-80
2023/12/04 10:03:29;;;;;;;13.43;9.70;;;;;;;;;;6282684;22;20233;-80
2023/12/04 10:05:57;;;;;;;12.15;9.35;;;;;;;;;;6282434;22;20181;-80
2023/12/04 10:08:26;;;;;;;11.88;8.60;;;;;;;;;;6282931;22;20749;-80
2023/12/04 10:10:53;;;;;;;11.98;8.93;;;;;;;;;;6282112;22;20569;-80
2023/12/04 10:13:21;;;;;;;11.75;8.45;;;;;;;;;;6282161;22;20555;-78
2023/12/04 10:15:49;;;;;;;12.07;8.35;;;;;;;;;;6281391;22;20267;-79
2023/12/04 10:18:34;;;;;;;14.60;9.73;;;;;;;;;;6282472;22;20590;-79
2023/12/04 10:21:03;;;;;;;11.82;9.23;;;;;;;;;;6282994;22;20687;-78
2023/12/04 10:23:43;;;;;;;12.00;8.52;;;;;;;;;;6282263;22;20190;-79
2023/12/04 10:26:10;;;;;;;11.18;8.85;;;;;;;;;;6282429;22;20183;-80
2023/12/04 10:28:38;;;;;;;10.93;8.98;;;;;;;;;;6282904;22;20281;-78
2023/12/04 10:31:06;;;;;;;10.45;8.15;;;;;;;;;;6283112;22;20186;-79
2023/12/04 10:33:35;;;;;;;10.43;7.55;;;;;;;;;;6282654;22;20232;-79
2023/12/04 10:36:04;;;;;;;10.90;8.77;;;;;;;;;;6282580;22;20187;-80
2023/12/04 10:38:31;;;;;;;9.77;7.68;;;;;;;;;;6282320;22;20201;-80
2023/12/04 10:41:14;;;;;;;8.73;7.68;;;;;;;;;;6281628;22;20709;-80
2023/12/04 10:43:48;;;;;;;11.88;8.77;;;;;;;;;;6283113;22;20153;-80
2023/12/04 10:46:17;;;;;;;10.43;7.97;;;;;;;;;;6283048;22;20160;-81
2023/12/04 10:48:47;;;;;;;10.52;8.55;;;;;;;;;;6282430;22;20188;-80
2023/12/04 10:51:15;;;;;;;10.57;7.88;;;;;;;;;;6282087;22;20579;-80
2023/12/04 10:53:42;;;;;;;9.00;7.97;;;;;;;;;;6282653;22;20203;-80
2023/12/04 10:56:17;;;;;;;10.30;8.45;;;;;;;;;;6283056;22;20176;-80
2023/12/04 10:58:45;;;;;;;11.75;9.10;;;;;;;;;;6282269;22;20202;-79
2023/12/04 11:01:13;;;;;;;10.00;8.38;;;;;;;;;;6282174;22;20184;-81
2023/12/04 11:03:46;;;;;;;12.80;9.48;;;;;;;;;;6282256;22;20179;-79
2023/12/04 11:06:14;;;;;;;9.80;7.78;;;;;;;;;;6281720;22;20240;-80
2023/12/04 11:08:43;;;;;;;12.60;9.32;;;;;;;;;;6282333;22;20273;-80
2023/12/04 11:11:16;;;;;;;8.90;7.03;;;;;;;;;;6282155;22;20179;-80
2023/12/04 11:13:46;;;;;;;8.88;7.55;;;;;;;;;;6282289;22;20215;-79
2023/12/04 11:16:19;;;;;;;8.55;7.28;;;;;;;;;;6282259;22;20259;-79
2023/12/04 11:18:52;;;;;;;6.68;5.78;;;;;;;;;;6282348;22;20235;-80
2023/12/04 11:21:20;;;;;;;9.27;6.80;;;;;;;;;;6281246;22;20164;-79
2023/12/04 11:23:49;;;;;;;8.45;7.03;;;;;;;;;;6281215;22;20211;-80
2023/12/04 11:26:18;;;;;;;9.65;7.65;;;;;;;;;;6282342;22;20183;-80
2023/12/04 11:28:46;;;;;;;7.82;6.85;;;;;;;;;;6281565;22;20267;-80
2023/12/04 11:31:14;;;;;;;7.55;6.68;;;;;;;;;;6281794;22;20255;-79
2023/12/04 11:33:42;;;;;;;6.63;5.78;;;;;;;;;;6282189;22;20177;-79
2023/12/04 11:36:12;;;;;;;8.60;6.75;;;;;;;;;;6282484;22;20570;-80
2023/12/04 11:38:45;;;;;;;7.20;6.45;;;;;;;;;;6282453;22;20274;-80
2023/12/04 11:41:21;;;;;;;8.13;6.57;;;;;;;;;;6282048;22;20157;-80
2023/12/04 11:43:49;;;;;;;5.95;5.35;;;;;;;;;;6282372;22;20167;-79
2023/12/04 11:46:22;;;;;;;6.88;6.00;;;;;;;;;;6281867;22;20255;-81
2023/12/04 11:48:50;;;;;;;7.82;6.68;;;;;;;;;;6282845;22;20235;-80
2023/12/04 11:51:57;;;;;;;8.50;6.35;;;;;;;;;;6282082;22;20176;-81
2023/12/04 11:54:26;;;;;;;6.88;5.38;;;;;;;;;;6258690;22;20355;-81
2023/12/04 11:57:21;;;;;;;8.77;6.97;;;;;;;;;;6282630;22;20597;-81
2023/12/04 11:59:48;;;;;;;7.75;6.47;;;;;;;;;;6282529;22;20203;-81
2023/12/04 12:02:17;;;;;;;6.03;5.43;;;;;;;;;;6281798;22;20176;-80
2023/12/04 12:04:45;;;;;;;9.25;6.30;;;;;;;;;;6282912;22;20630;-80
2023/12/04 12:07:13;;;;;;;8.65;6.28;;;;;;;;;;6282146;22;20176;-81
2023/12/04 12:09:41;;;;;;;7.75;6.15;;;;;;;;;;6282025;22;20271;-80
2023/12/04 12:12:10;;;;;;;7.50;5.95;;;;;;;;;;6281768;22;20200;-81
2023/12/04 12:14:38;;;;;;;8.32;6.18;;;;;;;;;;6282172;22;20259;-80
2023/12/04 12:17:06;;;;;;;7.40;5.57;;;;;;;;;;6281985;22;20177;-79
2023/12/04 12:19:34;;;;;;;7.15;5.90;;;;;;;;;;6281570;22;20287;-80
2023/12/04 12:22:02;;;;;;;7.03;5.22;;;;;;;;;;6282656;22;20183;-80
2023/12/04 12:24:30;;;;;;;6.50;5.25;;;;;;;;;;6281758;22;20184;-80
2023/12/04 12:26:57;;;;;;;4.75;4.22;;;;;;;;;;6281885;22;20232;-80
2023/12/04 12:29:26;;;;;;;8.50;6.20;;;;;;;;;;6281697;22;20247;-81
2023/12/04 12:31:54;;;;;;;6.82;6.13;;;;;;;;;;6281311;22;20228;-79
2023/12/04 12:34:21;;;;;;;7.05;5.93;;;;;;;;;;6281860;22;20172;-80
2023/12/04 12:36:49;;;;;;;7.43;5.60;;;;;;;;;;6282485;22;20207;-81
2023/12/04 12:39:17;;;;;;;5.90;5.07;;;;;;;;;;6281549;22;20222;-80
2023/12/04 12:41:49;;;;;;;7.93;5.53;;;;;;;;;;6281998;22;20183;-80
2023/12/04 12:44:17;;;;;;;8.90;5.32;;;;;;;;;;6282325;22;20161;-81
2023/12/04 12:46:49;;;;;;;5.50;4.97;;;;;;;;;;6282514;22;20168;-81
2023/12/04 12:49:20;;;;;;;6.32;5.03;;;;;;;;;;6282780;22;20649;-81
2023/12/04 12:51:47;;;;;;;7.93;5.65;;;;;;;;;;6281789;22;20211;-81
2023/12/04 12:54:15;;;;;;;7.05;5.70;;;;;;;;;;6281881;22;20255;-80
2023/12/04 12:56:42;;;;;;;9.73;6.40;;;;;;;;;;6281942;22;20172;-78
2023/12/04 12:59:10;;;;;;;7.15;5.53;;;;;;;;;;6282307;22;20632;-80
2023/12/04 13:01:39;;;;;;;5.75;4.90;;;;;;;;;;6282378;22;20183;-79
2023/12/04 13:04:09;;;;;;;6.93;5.50;;;;;;;;;;6281448;22;20593;-80
2023/12/04 13:06:36;;;;;;;7.05;5.45;;;;;;;;;;6282057;22;20244;-81
2023/12/04 13:09:06;;;;;;;7.20;5.00;;;;;;;;;;6281979;22;20189;-80
2023/12/04 13:11:33;;;;;;;8.25;6.32;;;;;;;;;;6281728;22;20179;-81
2023/12/04 13:14:02;;;;;;;7.60;5.75;;;;;;;;;;6281737;22;20200;-81
2023/12/04 13:16:29;;;;;;;6.25;5.03;;;;;;;;;;6282464;22;20222;-81
2023/12/04 13:18:57;;;;;;;7.03;5.90;;;;;;;;;;6282046;22;20608;-81
2023/12/04 13:21:26;;;;;;;7.85;6.50;;;;;;;;;;6282107;22;20200;-80
2023/12/04 13:23:53;;;;;;;7.03;5.88;;;;;;;;;;6281791;22;20579;-81
2023/12/04 13:26:21;;;;;;;6.82;5.50;;;;;;;;;;6281441;22;20176;-79
2023/12/04 13:28:49;;;;;;;7.70;5.85;;;;;;;;;;6282517;22;20272;-81
2023/12/04 13:31:16;;;;;;;6.50;5.47;;;;;;;;;;6284191;22;20195;-81
2023/12/04 13:33:46;;;;;;;7.70;5.80;;;;;;;;;;6283700;22;20260;-81
2023/12/04 13:36:14;;;;;;;7.25;5.47;;;;;;;;;;6284286;22;20176;-81
2023/12/04 13:38:42;;;;;;;6.25;4.90;;;;;;;;;;6284025;22;20197;-81
2023/12/04 13:43:49;;;;;;;5.85;5.25;;;;;;;;;;6284305;22;20180;-81
2023/12/04 13:44:06;;;;;;;6.43;5.38;;;;;;;;;;6284049;22;20161;-80
2023/12/04 13:46:34;;;;;;;7.18;4.97;;;;;;;;;;6284104;22;20165;-80
2023/12/04 13:49:01;;;;;;;5.85;5.20;;;;;;;;;;6283821;22;20255;-80
2023/12/04 13:51:29;;;;;;;9.75;5.57;;;;;;;;;;6283230;22;20641;-80
2023/12/04 13:54:08;;;;;;;5.25;4.75;;;;;;;;;;6283380;22;20535;-80
2023/12/04 13:56:44;;;;;;;6.07;5.15;;;;;;;;;;6285017;22;20166;-83
2023/12/04 13:59:18;;;;;;;5.25;4.45;;;;;;;;;;6283048;22;20199;-83
2023/12/04 14:01:45;;;;;;;4.13;3.58;;;;;;;;;;6284254;22;20157;-83
2023/12/04 14:04:13;;;;;;;4.38;3.97;;;;;;;;;;6282826;22;20211;-83
2023/12/04 14:06:40;;;;;;;4.63;4.20;;;;;;;;;;6283581;22;20251;-80
2023/12/04 14:09:14;;;;;;;6.82;4.90;;;;;;;;;;6281869;22;20284;-81
2023/12/04 14:11:45;;;;;;;5.65;4.55;;;;;;;;;;6281033;22;20586;-79
2023/12/04 14:14:13;;;;;;;6.15;4.53;;;;;;;;;;6281091;22;20161;-82
2023/12/04 14:16:41;;;;;;;5.75;4.28;;;;;;;;;;6281572;22;20506;-82
2023/12/04 14:19:09;;;;;;;5.70;5.00;;;;;;;;;;6282131;22;20200;-80
2023/12/04 14:21:36;;;;;;;4.80;4.30;;;;;;;;;;6282112;22;20259;-79
2023/12/04 14:24:04;;;;;;;6.75;5.70;;;;;;;;;;6281279;22;20239;-78
2023/12/04 14:26:33;;;;;;;5.55;4.55;;;;;;;;;;6281823;22;20173;-80
2023/12/04 14:29:03;;;;;;;4.55;3.97;;;;;;;;;;6280642;22;20227;-78
2023/12/04 14:31:31;;;;;;;5.07;3.92;;;;;;;;;;6281542;22;20177;-81
2023/12/04 14:33:58;;;;;;;5.13;4.30;;;;;;;;;;6281846;22;20173;-81
2023/12/04 14:36:26;;;;;;;7.13;5.68;;;;;;;;;;6281762;22;20235;-82
2023/12/04 14:38:54;;;;;;;5.47;4.88;;;;;;;;;;6282065;22;20231;-80